Time;durP1;ratioP1;P1;durP2;ratioP2;P2;SDS_P1;SDS_P2;PMS_P1;PMS_P2;Temp;Humidity;BMP_temperature;BMP_pressure;BME280_temperature;BME280_humidity;BME280_pressure;Samples;Min_cycle;Max_cycle;Signal;HPM_P1;HPM_P2
2022/01/10 00:01:29;;;;;;;62.13;28.93;;;0.20;99.90;;;;;;4919510;29;20661;-82
2022/01/10 00:03:56;;;;;;;59.43;25.97;;;0.20;99.90;;;;;;4919213;29;20688;-82
2022/01/10 00:06:23;;;;;;;64.13;28.00;;;0.20;99.90;;;;;;4919145;29;20642;-82
2022/01/10 00:08:50;;;;;;;61.37;28.30;;;0.20;99.90;;;;;;4919503;29;20807;-82
2022/01/10 00:11:16;;;;;;;57.77;24.17;;;0.20;99.90;;;;;;4919310;29;20249;-82
2022/01/10 00:13:43;;;;;;;60.97;25.60;;;0.20;99.90;;;;;;4919029;29;20209;-82
2022/01/10 00:16:10;;;;;;;61.67;28.03;;;0.10;99.90;;;;;;4919264;29;20205;-82
2022/01/10 00:18:39;;;;;;;59.20;27.83;;;0.10;99.90;;;;;;4919524;29;20258;-82
2022/01/10 00:21:06;;;;;;;65.37;28.37;;;0.10;99.90;;;;;;4919386;29;20331;-82
2022/01/10 00:23:34;;;;;;;54.27;25.47;;;0.10;99.90;;;;;;4918992;29;20217;-82
2022/01/10 00:26:01;;;;;;;66.20;27.90;;;0.10;99.90;;;;;;4919585;29;20284;-82
2022/01/10 00:28:28;;;;;;;59.70;27.43;;;0.00;99.90;;;;;;4918981;29;20205;-82
2022/01/10 00:30:55;;;;;;;62.07;28.63;;;0.00;99.90;;;;;;4918896;29;20205;-82
2022/01/10 00:33:22;;;;;;;62.30;28.03;;;0.00;99.90;;;;;;4919362;29;20197;-82
2022/01/10 00:35:51;;;;;;;60.47;27.87;;;0.00;99.90;;;;;;4919330;29;20205;-82
2022/01/10 00:38:18;;;;;;;66.60;29.67;;;-0.10;99.90;;;;;;4900269;29;20205;-82
2022/01/10 00:40:48;;;;;;;70.60;30.03;;;-0.10;99.90;;;;;;4900151;29;20261;-82
2022/01/10 00:43:18;;;;;;;63.43;27.33;;;-0.10;99.90;;;;;;4899989;29;20230;-82
2022/01/10 00:45:46;;;;;;;69.83;31.10;;;-0.10;99.90;;;;;;4899975;29;20194;-82
2022/01/10 00:48:13;;;;;;;58.57;23.73;;;-0.10;99.90;;;;;;4900072;29;20539;-82
2022/01/10 00:50:40;;;;;;;63.20;27.60;;;-0.20;99.90;;;;;;4899728;29;20724;-82
2022/01/10 00:53:08;;;;;;;60.33;27.23;;;-0.20;99.90;;;;;;4899510;29;20293;-82
2022/01/10 00:55:35;;;;;;;58.80;27.57;;;-0.30;99.90;;;;;;4899938;29;20203;-82
2022/01/10 00:58:02;;;;;;;64.23;29.33;;;-0.30;99.90;;;;;;4899893;29;20201;-82
2022/01/10 01:00:29;;;;;;;64.60;26.73;;;-0.30;99.90;;;;;;4899650;29;20606;-82
2022/01/10 01:02:58;;;;;;;61.77;27.67;;;-0.30;99.90;;;;;;4899473;29;20273;-82
2022/01/10 01:05:27;;;;;;;59.57;26.20;;;-0.40;99.90;;;;;;4900029;29;20252;-82
2022/01/10 01:07:54;;;;;;;65.97;27.17;;;-0.40;99.90;;;;;;4899935;29;20206;-83
2022/01/10 01:10:54;;;;;;;62.70;28.37;;;-0.40;99.90;;;;;;4899894;29;20261;-82
2022/01/10 01:13:28;;;;;;;62.17;27.70;;;-0.50;99.90;;;;;;4898939;29;20202;-82
2022/01/10 01:16:09;;;;;;;58.87;24.30;;;-0.50;99.90;;;;;;4899449;29;20613;-82
2022/01/10 01:19:04;;;;;;;64.10;28.30;;;-0.50;99.90;;;;;;4899333;29;20707;-82
2022/01/10 01:24:16;;;;;;;58.57;29.27;;;-0.60;99.90;;;;;;4899291;29;20212;-82
2022/01/10 01:26:46;;;;;;;66.47;28.53;;;-0.60;99.90;;;;;;4899350;29;20198;-82
2022/01/10 01:29:15;;;;;;;64.10;27.13;;;-0.60;99.90;;;;;;4899471;29;20261;-82
2022/01/10 01:31:42;;;;;;;72.73;29.67;;;-0.60;99.90;;;;;;4898792;29;20605;-82
2022/01/10 01:34:10;;;;;;;67.00;28.07;;;-0.60;99.90;;;;;;4899424;29;20209;-82
2022/01/10 01:36:38;;;;;;;66.60;29.87;;;-0.70;99.90;;;;;;4904669;29;20225;-82
2022/01/10 01:39:16;;;;;;;68.87;28.67;;;-0.70;99.90;;;;;;4917712;29;20668;-82
2022/01/10 01:41:45;;;;;;;69.43;28.10;;;-0.70;99.90;;;;;;4917759;29;20190;-82
2022/01/10 01:44:12;;;;;;;64.87;26.63;;;-0.80;99.90;;;;;;4901833;29;20237;-82
2022/01/10 01:46:41;;;;;;;66.73;27.80;;;-0.80;99.90;;;;;;4899059;29;20257;-82
2022/01/10 01:49:10;;;;;;;61.20;27.70;;;-0.80;99.90;;;;;;4898877;29;20209;-82
2022/01/10 01:51:38;;;;;;;68.83;31.10;;;-0.80;99.90;;;;;;4901682;29;20245;-82
2022/01/10 01:54:06;;;;;;;65.70;30.53;;;-0.90;99.90;;;;;;4917818;29;20205;-82
2022/01/10 01:56:34;;;;;;;65.63;27.47;;;-0.90;99.90;;;;;;4917840;29;20197;-82
2022/01/10 01:59:04;;;;;;;68.63;30.60;;;-0.90;99.90;;;;;;4917453;29;20699;-82
2022/01/10 02:01:31;;;;;;;66.63;28.87;;;-0.90;99.90;;;;;;4917315;29;20201;-82
2022/01/10 02:03:59;;;;;;;61.20;28.20;;;-1.00;99.90;;;;;;4917641;29;20276;-82
2022/01/10 02:06:26;;;;;;;65.63;29.53;;;-1.00;99.90;;;;;;4917502;29;20209;-82
2022/01/10 02:08:53;;;;;;;67.43;28.83;;;-1.00;99.90;;;;;;4917129;29;20720;-82
2022/01/10 02:11:20;;;;;;;61.83;28.83;;;-1.00;99.90;;;;;;4917179;29;20261;-82
2022/01/10 02:13:47;;;;;;;60.70;26.20;;;-1.10;99.90;;;;;;4917179;29;20201;-82
2022/01/10 02:16:21;;;;;;;72.37;29.70;;;-1.10;99.90;;;;;;4917336;29;20256;-82
2022/01/10 02:18:49;;;;;;;59.03;26.00;;;-1.10;99.90;;;;;;4916462;29;20189;-82
2022/01/10 02:21:17;;;;;;;65.80;28.90;;;-1.10;99.90;;;;;;4917332;29;20237;-83
2022/01/10 02:23:45;;;;;;;74.23;30.50;;;-1.20;99.90;;;;;;4916823;29;20270;-82
2022/01/10 02:26:13;;;;;;;67.43;29.90;;;-1.10;99.90;;;;;;4916898;29;20723;-82
2022/01/10 02:28:42;;;;;;;67.03;29.23;;;-1.20;99.90;;;;;;4917053;29;20260;-82
2022/01/10 02:31:09;;;;;;;61.33;26.23;;;-1.20;99.90;;;;;;4917218;29;20223;-82
2022/01/10 02:33:36;;;;;;;67.67;30.73;;;-1.20;99.90;;;;;;4916494;29;20656;-82
2022/01/10 02:36:13;;;;;;;65.90;27.43;;;-1.20;99.90;;;;;;4916813;29;20260;-82
2022/01/10 02:38:48;;;;;;;66.97;28.67;;;-1.30;99.90;;;;;;4917105;29;20245;-82
2022/01/10 02:41:25;;;;;;;65.27;29.43;;;-1.20;99.90;;;;;;4917094;29;20273;-82
2022/01/10 02:43:53;;;;;;;69.93;27.77;;;-1.30;99.90;;;;;;4897686;29;20218;-82
2022/01/10 02:46:20;;;;;;;67.13;29.77;;;-1.20;99.90;;;;;;4897995;29;20266;-82
2022/01/10 02:48:48;;;;;;;70.67;30.27;;;-1.20;99.90;;;;;;4897939;29;20198;-82
2022/01/10 02:51:15;;;;;;;49.43;21.03;;;-1.20;99.90;;;;;;4898006;29;20201;-82
2022/01/10 02:53:42;;;;;;;67.63;28.63;;;-1.30;1.00;;;;;;4915654;29;20622;-82
2022/01/10 02:56:10;;;;;;;72.00;28.90;;;-1.30;1.00;;;;;;4916358;29;20663;-82
2022/01/10 02:58:38;;;;;;;64.23;27.53;;;-1.20;1.00;;;;;;4916297;29;20201;-82
2022/01/10 03:01:05;;;;;;;66.57;30.17;;;-1.30;1.00;;;;;;4916531;29;20201;-82
2022/01/10 03:03:32;;;;;;;48.47;19.30;;;-1.20;1.00;;;;;;4916117;29;20743;-82
2022/01/10 03:06:00;;;;;;;70.37;30.73;;;-1.30;1.00;;;;;;4916454;29;20564;-82
2022/01/10 03:08:28;;;;;;;61.27;28.50;;;-1.20;1.00;;;;;;4916508;29;20589;-82
2022/01/10 03:10:56;;;;;;;53.17;21.63;;;-1.30;1.00;;;;;;4916537;29;20272;-83
2022/01/10 03:13:24;;;;;;;70.30;30.43;;;-1.30;1.00;;;;;;4916185;29;20242;-82
2022/01/10 03:15:51;;;;;;;73.67;30.07;;;-1.30;1.00;;;;;;4916069;29;20202;-83
2022/01/10 03:18:18;;;;;;;62.77;28.93;;;-1.30;1.00;;;;;;4916069;29;20657;-82
2022/01/10 03:20:45;;;;;;;66.53;29.30;;;-1.30;1.00;;;;;;4915755;29;20659;-83
2022/01/10 03:23:12;;;;;;;49.30;21.53;;;-1.30;1.00;;;;;;4916099;29;20616;-82
2022/01/10 03:25:39;;;;;;;53.73;23.30;;;-1.30;1.00;;;;;;4915978;29;20759;-82
2022/01/10 03:28:06;;;;;;;63.13;27.50;;;-1.30;1.00;;;;;;4916254;29;20292;-82
2022/01/10 03:30:35;;;;;;;53.30;22.87;;;-1.30;1.00;;;;;;4915023;29;20193;-82
2022/01/10 03:33:03;;;;;;;69.07;30.30;;;-1.30;1.00;;;;;;4916693;29;20269;-83
2022/01/10 03:35:31;;;;;;;79.07;36.67;;;-1.30;1.00;;;;;;4916111;29;20680;-83
2022/01/10 03:37:58;;;;;;;62.27;27.67;;;-1.30;1.00;;;;;;4916186;29;20332;-82
2022/01/10 03:40:25;;;;;;;67.40;28.13;;;-1.30;1.00;;;;;;4915936;29;20286;-82
2022/01/10 03:42:52;;;;;;;62.07;29.10;;;-1.20;1.00;;;;;;4915367;29;20260;-82
2022/01/10 03:45:19;;;;;;;72.13;34.43;;;-1.30;1.00;;;;;;4915729;29;20691;-82
2022/01/10 03:47:47;;;;;;;61.10;27.67;;;-1.20;1.00;;;;;;4915898;29;20241;-82
2022/01/10 03:50:14;;;;;;;67.07;30.27;;;-1.30;1.00;;;;;;4915733;29;20208;-82
2022/01/10 03:52:42;;;;;;;60.87;25.73;;;-1.30;1.00;;;;;;4915702;29;20261;-82
2022/01/10 03:55:10;;;;;;;71.53;30.77;;;-1.30;1.00;;;;;;4915801;29;20212;-82
2022/01/10 03:57:38;;;;;;;71.67;31.30;;;-1.30;1.00;;;;;;4915776;29;20660;-81
2022/01/10 04:00:07;;;;;;;67.07;29.27;;;-1.40;1.00;;;;;;4915602;29;20257;-81
2022/01/10 04:02:35;;;;;;;73.77;34.60;;;-1.40;1.00;;;;;;4916311;29;20197;-82
2022/01/10 04:05:04;;;;;;;78.73;31.63;;;-1.40;1.00;;;;;;4915747;29;20225;-81
2022/01/10 04:07:32;;;;;;;80.63;32.60;;;-1.40;1.00;;;;;;4915845;29;20615;-81
2022/01/10 04:09:59;;;;;;;77.17;34.93;;;-1.40;1.00;;;;;;4915713;29;20209;-81
2022/01/10 04:12:26;;;;;;;82.87;35.00;;;-1.40;1.00;;;;;;4915490;29;20205;-82
2022/01/10 04:14:53;;;;;;;66.07;27.70;;;-1.40;1.00;;;;;;4915895;29;20205;-82
2022/01/10 04:17:20;;;;;;;82.53;34.47;;;-1.40;1.00;;;;;;4915943;29;20253;-82
2022/01/10 04:19:47;;;;;;;69.53;32.00;;;-1.50;1.00;;;;;;4915535;29;20257;-81
2022/01/10 04:22:15;;;;;;;67.97;29.83;;;-1.50;1.00;;;;;;4915211;29;20202;-81
2022/01/10 04:24:42;;;;;;;79.83;34.77;;;-1.60;1.00;;;;;;4915436;29;20229;-82
2022/01/10 04:27:09;;;;;;;74.07;30.60;;;-1.60;1.00;;;;;;4915815;29;20395;-82
2022/01/10 04:29:36;;;;;;;70.30;29.13;;;-1.70;1.00;;;;;;4915410;29;20205;-82
2022/01/10 04:32:04;;;;;;;78.87;33.23;;;-1.70;1.00;;;;;;4916100;29;20198;-81
2022/01/10 04:34:31;;;;;;;76.70;32.33;;;-1.80;1.00;;;;;;4915810;29;20197;-82
2022/01/10 04:36:58;;;;;;;73.60;31.10;;;-1.90;1.00;;;;;;4915361;29;20237;-81
2022/01/10 04:39:29;;;;;;;64.63;26.77;;;-1.90;1.00;;;;;;4915358;29;20195;-82
2022/01/10 04:41:56;;;;;;;88.83;40.87;;;-1.90;1.00;;;;;;4916190;29;20233;-81
2022/01/10 04:44:23;;;;;;;67.50;30.70;;;-2.00;1.00;;;;;;4918803;29;20624;-81
2022/01/10 04:46:51;;;;;;;47.53;24.57;;;-2.00;1.00;;;;;;4918822;29;20605;-82
2022/01/10 04:49:21;;;;;;;69.40;32.97;;;-2.00;1.00;;;;;;4918413;29;20190;-82
2022/01/10 04:51:49;;;;;;;49.23;21.57;;;-2.10;1.00;;;;;;4918768;29;20193;-82
2022/01/10 04:54:16;;;;;;;61.00;25.73;;;-2.10;1.00;;;;;;4918749;29;20220;-82
2022/01/10 04:56:45;;;;;;;63.40;26.87;;;-2.20;1.00;;;;;;4918609;29;20201;-82
2022/01/10 04:59:13;;;;;;;45.63;21.83;;;-2.20;1.00;;;;;;4918209;29;20218;-82
2022/01/10 05:01:41;;;;;;;64.07;29.87;;;-2.20;10.90;;;;;;4918418;29;20593;-82
2022/01/10 05:04:09;;;;;;;48.50;22.67;;;-2.20;9.70;;;;;;4918463;29;20205;-82
2022/01/10 05:06:37;;;;;;;63.17;29.27;;;-2.30;46.40;;;;;;4918906;29;20237;-81
2022/01/10 05:09:04;;;;;;;80.33;34.53;;;-2.30;11.50;;;;;;4918723;29;20198;-82
2022/01/10 05:11:33;;;;;;;73.47;30.97;;;-2.30;7.50;;;;;;4918559;29;20226;-82
2022/01/10 05:14:01;;;;;;;57.43;26.30;;;-2.30;1.00;;;;;;4918537;29;20244;-82
2022/01/10 05:16:28;;;;;;;43.27;19.80;;;-2.30;1.00;;;;;;4918447;29;20209;-82
2022/01/10 05:18:57;;;;;;;74.10;33.93;;;-2.40;33.40;;;;;;4918240;29;20193;-82
2022/01/10 05:21:24;;;;;;;53.97;26.90;;;-2.50;38.20;;;;;;4918075;29;20327;-81
2022/01/10 05:23:51;;;;;;;41.47;19.47;;;-2.40;23.20;;;;;;4918533;29;20213;-82
2022/01/10 05:26:21;;;;;;;77.27;31.90;;;-2.50;52.90;;;;;;4918307;29;20225;-82
2022/01/10 05:28:48;;;;;;;71.67;32.10;;;-2.50;76.70;;;;;;4917716;29;20211;-82
2022/01/10 05:31:16;;;;;;;63.53;26.70;;;-2.60;60.70;;;;;;4917804;29;20249;-81
2022/01/10 05:33:43;;;;;;;74.93;32.80;;;-2.60;82.50;;;;;;4918245;29;20253;-82
2022/01/10 05:36:10;;;;;;;53.80;23.57;;;-2.60;99.90;;;;;;4918127;29;20265;-82
2022/01/10 05:38:37;;;;;;;80.80;32.33;;;-2.60;99.90;;;;;;4917763;29;20197;-82
2022/01/10 05:41:04;;;;;;;66.20;29.07;;;-2.60;99.90;;;;;;4917823;29;20620;-82
2022/01/10 05:43:31;;;;;;;49.10;20.10;;;-2.60;99.90;;;;;;4917734;29;20546;-82
2022/01/10 05:45:58;;;;;;;58.83;25.43;;;-2.70;99.90;;;;;;4917854;29;20226;-82
2022/01/10 05:48:29;;;;;;;54.43;23.87;;;-2.70;99.90;;;;;;4917664;29;20204;-82
2022/01/10 05:50:57;;;;;;;64.43;30.10;;;-2.80;99.90;;;;;;4917622;29;20245;-82
2022/01/10 05:53:24;;;;;;;89.33;33.83;;;-2.80;99.90;;;;;;4916773;29;20537;-82
2022/01/10 05:55:51;;;;;;;55.27;21.67;;;-2.80;99.90;;;;;;4917772;29;20205;-82
2022/01/10 05:58:18;;;;;;;67.53;29.00;;;-2.80;99.90;;;;;;4917156;29;20623;-82
2022/01/10 06:00:46;;;;;;;73.23;30.03;;;-2.80;99.90;;;;;;4917339;29;20257;-82
2022/01/10 06:03:14;;;;;;;56.87;24.60;;;-2.80;99.90;;;;;;4915875;29;20197;-83
2022/01/10 06:05:42;;;;;;;48.40;22.80;;;-2.80;99.90;;;;;;4902841;29;20222;-83
2022/01/10 06:08:09;;;;;;;60.87;24.50;;;-2.90;99.90;;;;;;4909525;29;20245;-83
2022/01/10 06:10:37;;;;;;;87.33;34.13;;;-2.90;99.90;;;;;;4918035;29;20560;-85
2022/01/10 06:13:04;;;;;;;86.30;33.33;;;-2.90;99.90;;;;;;4917331;29;20273;-85
2022/01/10 06:15:31;;;;;;;78.57;35.10;;;-2.90;99.90;;;;;;4917402;29;20245;-83
2022/01/10 06:17:58;;;;;;;72.63;32.90;;;-2.90;99.90;;;;;;4917082;29;20668;-85
2022/01/10 06:20:25;;;;;;;79.63;35.03;;;-2.90;99.90;;;;;;4917063;29;20201;-84
2022/01/10 06:22:54;;;;;;;94.83;37.83;;;-3.00;99.90;;;;;;4910146;29;20210;-84
2022/01/10 06:25:24;;;;;;;84.33;37.17;;;-2.90;99.90;;;;;;4899182;29;20298;-84
2022/01/10 06:27:51;;;;;;;80.93;37.33;;;-2.90;99.90;;;;;;4900996;29;20201;-85
2022/01/10 06:30:18;;;;;;;82.33;36.30;;;-3.00;99.90;;;;;;4915646;29;20205;-85
2022/01/10 06:32:45;;;;;;;86.07;36.83;;;-3.00;99.90;;;;;;4917143;29;20197;-85
2022/01/10 06:35:12;;;;;;;77.43;34.83;;;-3.00;99.90;;;;;;4917288;29;20215;-85
2022/01/10 06:37:39;;;;;;;79.67;35.00;;;-3.00;99.90;;;;;;4916893;29;20276;-84
2022/01/10 06:40:10;;;;;;;88.80;39.07;;;-3.00;99.90;;;;;;4917002;29;20206;-85
2022/01/10 06:42:37;;;;;;;77.40;35.57;;;-3.00;99.90;;;;;;4917063;29;20195;-84
2022/01/10 06:45:04;;;;;;;83.40;35.50;;;-3.00;99.90;;;;;;4916133;29;20221;-83
2022/01/10 06:47:31;;;;;;;76.67;34.07;;;-3.00;99.90;;;;;;4905192;29;20266;-85
2022/01/10 06:49:58;;;;;;;84.40;37.77;;;-3.00;99.90;;;;;;4897530;29;20764;-83
2022/01/10 06:52:25;;;;;;;76.20;35.10;;;-3.10;99.90;;;;;;4897934;29;20198;-84
2022/01/10 06:54:52;;;;;;;80.53;37.60;;;-3.10;99.90;;;;;;4903395;29;20209;-85
2022/01/10 06:57:21;;;;;;;81.13;35.20;;;-3.10;99.90;;;;;;4916753;29;20193;-85
2022/01/10 06:59:48;;;;;;;74.47;33.83;;;-3.00;99.90;;;;;;4916367;29;20197;-85
2022/01/10 07:02:15;;;;;;;77.30;35.67;;;-3.10;99.90;;;;;;4910835;29;20209;-85
2022/01/10 07:04:42;;;;;;;82.40;35.33;;;-3.00;99.90;;;;;;4901522;29;20731;-85
2022/01/10 07:07:09;;;;;;;87.37;38.57;;;-3.10;99.90;;;;;;4916652;29;20205;-85
2022/01/10 07:09:36;;;;;;;83.17;37.47;;;-3.00;99.90;;;;;;4916527;29;20596;-85
2022/01/10 07:12:05;;;;;;;78.77;34.67;;;-3.00;99.90;;;;;;4916189;29;20659;-85
2022/01/10 07:14:35;;;;;;;58.13;22.10;;;-3.10;99.90;;;;;;4916326;29;20198;-86
2022/01/10 07:17:02;;;;;;;71.70;34.50;;;-3.10;99.90;;;;;;4916441;29;20205;-84
2022/01/10 07:19:29;;;;;;;71.47;31.13;;;-3.10;99.90;;;;;;4916273;29;20266;-84
2022/01/10 07:21:56;;;;;;;85.30;35.53;;;-3.10;99.90;;;;;;4916421;29;20209;-85
2022/01/10 07:24:23;;;;;;;72.40;27.73;;;-3.10;99.90;;;;;;4915606;29;20624;-85
2022/01/10 07:26:50;;;;;;;89.40;38.57;;;-3.10;99.90;;;;;;4916234;29;20221;-86
2022/01/10 07:29:17;;;;;;;70.17;32.67;;;-3.00;99.90;;;;;;4916271;29;20209;-85
2022/01/10 07:31:46;;;;;;;88.17;38.70;;;-3.00;99.90;;;;;;4916587;29;20205;-85
2022/01/10 07:34:15;;;;;;;71.27;30.50;;;-3.00;99.90;;;;;;4898622;29;20197;-83
2022/01/10 07:36:42;;;;;;;82.53;36.87;;;-3.00;99.90;;;;;;4915956;29;20258;-86
2022/01/10 07:39:10;;;;;;;82.83;36.33;;;-3.00;99.90;;;;;;4916366;29;20205;-85
2022/01/10 07:41:37;;;;;;;81.37;36.33;;;-3.00;99.90;;;;;;4916099;29;20205;-85
2022/01/10 07:44:05;;;;;;;85.73;38.97;;;-2.90;99.90;;;;;;4915908;29;20600;-85
2022/01/10 07:46:32;;;;;;;87.37;35.27;;;-2.90;99.90;;;;;;4915825;29;20221;-85
2022/01/10 07:49:01;;;;;;;86.23;40.63;;;-2.80;99.90;;;;;;4915945;29;20228;-85
2022/01/10 07:51:28;;;;;;;92.90;38.73;;;-2.80;99.90;;;;;;4915446;29;20197;-85
2022/01/10 07:53:57;;;;;;;88.03;40.27;;;-2.70;99.90;;;;;;4907695;29;20206;-84
2022/01/10 07:56:24;;;;;;;89.43;40.70;;;-2.60;99.90;;;;;;4902666;29;20698;-85
2022/01/10 07:58:52;;;;;;;88.93;37.20;;;-2.60;99.90;;;;;;4915432;29;20201;-85
2022/01/10 08:01:20;;;;;;;87.20;39.00;;;-2.50;99.90;;;;;;4915555;29;20201;-85
2022/01/10 08:03:49;;;;;;;80.77;38.47;;;-2.50;99.90;;;;;;4915682;29;20204;-83
2022/01/10 08:06:18;;;;;;;81.77;37.57;;;-2.40;99.90;;;;;;4916499;29;20236;-85
2022/01/10 08:08:45;;;;;;;92.03;40.77;;;-2.30;99.90;;;;;;4916166;29;20249;-85
2022/01/10 08:11:12;;;;;;;97.97;40.27;;;-2.30;99.90;;;;;;4915562;29;20208;-84
2022/01/10 08:13:41;;;;;;;84.47;39.10;;;-2.10;99.90;;;;;;4915568;29;20198;-83
2022/01/10 08:16:08;;;;;;;85.57;38.87;;;-2.00;99.90;;;;;;4915871;29;20661;-85
2022/01/10 08:18:35;;;;;;;81.37;37.60;;;-1.90;99.90;;;;;;4919343;29;20254;-84
2022/01/10 08:21:02;;;;;;;83.37;37.67;;;-1.90;99.90;;;;;;4919614;29;20208;-85
2022/01/10 08:23:31;;;;;;;86.13;37.83;;;-1.80;99.90;;;;;;4918794;29;20249;-85
2022/01/10 08:25:58;;;;;;;87.43;37.40;;;-1.70;99.90;;;;;;4919219;29;20221;-85
2022/01/10 08:28:25;;;;;;;79.37;36.87;;;-1.70;99.90;;;;;;4919105;29;20637;-85
2022/01/10 08:30:52;;;;;;;81.63;37.13;;;-1.60;99.90;;;;;;4919526;29;20205;-86
2022/01/10 08:33:19;;;;;;;79.13;36.43;;;-1.60;99.90;;;;;;4919334;29;20261;-86
2022/01/10 08:35:46;;;;;;;72.73;34.60;;;-1.50;99.90;;;;;;4919512;29;20209;-84
2022/01/10 08:38:13;;;;;;;83.07;37.90;;;-1.40;97.90;;;;;;4919380;29;20229;-85
2022/01/10 08:40:42;;;;;;;79.53;35.67;;;-1.30;99.90;;;;;;4907848;29;20213;-83
2022/01/10 08:43:10;;;;;;;78.37;34.73;;;-1.20;99.90;;;;;;4912437;29;20201;-85
2022/01/10 08:45:38;;;;;;;76.60;37.00;;;-1.00;99.90;;;;;;4919261;29;20312;-85
2022/01/10 08:48:06;;;;;;;67.33;32.73;;;-0.80;99.90;;;;;;4919125;29;20229;-83
2022/01/10 08:50:34;;;;;;;71.37;35.23;;;-0.40;99.90;;;;;;4919046;29;20201;-85
2022/01/10 08:53:02;;;;;;;72.70;34.40;;;-0.10;99.90;;;;;;4918848;29;20193;-87
2022/01/10 08:55:31;;;;;;;71.40;35.43;;;0.30;1.00;;;;;;4903545;29;20262;-86
2022/01/10 08:57:59;;;;;;;69.30;34.00;;;0.70;1.00;;;;;;4899720;29;20681;-85
2022/01/10 09:00:27;;;;;;;65.33;33.53;;;1.00;1.00;;;;;;4903233;29;20695;-86
2022/01/10 09:02:54;;;;;;;65.83;33.27;;;1.20;1.00;;;;;;4918725;29;20254;-83
2022/01/10 09:05:21;;;;;;;63.37;32.87;;;1.50;1.00;;;;;;4918701;29;20216;-86
2022/01/10 09:07:49;;;;;;;67.33;32.97;;;1.70;99.90;;;;;;4919044;29;20259;-86
2022/01/10 09:10:16;;;;;;;68.23;33.90;;;1.80;1.00;;;;;;4918596;29;20201;-87
2022/01/10 09:12:44;;;;;;;69.60;35.60;;;2.00;1.00;;;;;;4915926;29;20273;-84
2022/01/10 09:15:14;;;;;;;65.80;33.50;;;2.00;1.00;;;;;;4906270;29;20209;-86
2022/01/10 09:17:41;;;;;;;67.87;35.17;;;2.20;1.00;;;;;;4909520;29;20321;-85
2022/01/10 09:20:09;;;;;;;65.30;34.07;;;2.30;1.00;;;;;;4899478;29;20203;-89
2022/01/10 09:22:36;;;;;;;72.60;37.43;;;2.40;1.00;;;;;;4906277;29;20201;-87
2022/01/10 09:25:03;;;;;;;66.90;35.83;;;2.50;1.00;;;;;;4918023;29;20209;-87
2022/01/10 09:27:30;;;;;;;66.93;35.00;;;2.50;99.90;;;;;;4918213;29;20228;-85
2022/01/10 09:29:57;;;;;;;73.13;38.20;;;2.50;99.90;;;;;;4918461;29;20291;-83
2022/01/10 09:32:26;;;;;;;67.03;33.20;;;2.50;1.00;;;;;;4917869;29;20209;-84
2022/01/10 09:34:53;;;;;;;68.27;33.13;;;2.30;99.90;;;;;;4918447;29;20210;-86
2022/01/10 09:37:20;;;;;;;64.43;33.90;;;2.20;99.90;;;;;;4918260;29;20232;-84
2022/01/10 09:39:47;;;;;;;59.60;29.67;;;2.20;1.00;;;;;;4918429;29;20299;-86
2022/01/10 09:42:15;;;;;;;73.70;35.00;;;2.20;1.00;;;;;;4918014;29;20559;-89
2022/01/10 09:44:42;;;;;;;67.87;33.03;;;2.10;88.40;;;;;;4918002;29;20209;-85
2022/01/10 09:47:09;;;;;;;78.97;37.00;;;1.90;1.00;;;;;;4917909;29;20229;-87
2022/01/10 09:49:40;;;;;;;65.27;31.47;;;1.90;26.20;;;;;;4917833;29;20208;-84
2022/01/10 09:52:07;;;;;;;60.67;29.43;;;1.80;1.00;;;;;;4917860;29;20201;-87
2022/01/10 09:54:35;;;;;;;74.90;39.20;;;1.80;1.00;;;;;;4917904;29;20202;-86
2022/01/10 09:57:02;;;;;;;67.70;35.27;;;1.70;1.00;;;;;;4917545;29;20708;-87
2022/01/10 09:59:29;;;;;;;68.23;38.13;;;1.50;1.00;;;;;;4917253;29;20202;-84
2022/01/10 10:01:59;;;;;;;57.90;28.50;;;1.50;1.00;;;;;;4906222;29;20273;-87
2022/01/10 10:04:27;;;;;;;63.90;32.17;;;1.40;1.00;;;;;;4896352;29;20727;-90
2022/01/10 10:06:57;;;;;;;74.13;40.07;;;1.40;1.00;;;;;;4896802;29;20226;-85
2022/01/10 10:09:24;;;;;;;73.17;41.47;;;1.40;1.00;;;;;;4898251;29;20206;-84
2022/01/10 10:11:52;;;;;;;77.43;44.67;;;1.40;1.00;;;;;;4897344;29;20202;-85
2022/01/10 10:14:22;;;;;;;70.83;41.67;;;1.20;99.90;;;;;;4899667;29;20672;-84
2022/01/10 10:16:52;;;;;;;83.50;40.90;;;1.00;99.90;;;;;;4897360;29;20274;-84
2022/01/10 10:19:21;;;;;;;71.30;38.20;;;0.80;1.00;;;;;;4898017;29;20673;-84
2022/01/10 10:21:49;;;;;;;83.73;46.77;;;0.60;1.00;;;;;;4899597;29;20547;-83
2022/01/10 10:24:18;;;;;;;80.03;41.27;;;0.40;99.90;;;;;;4897024;29;20205;-86
2022/01/10 10:26:45;;;;;;;58.70;29.63;;;0.30;99.90;;;;;;4900196;29;20273;-85
2022/01/10 10:29:16;;;;;;;79.03;39.87;;;0.20;1.00;;;;;;4902547;29;20683;-84
2022/01/10 10:31:46;;;;;;;66.93;30.07;;;0.10;1.00;;;;;;4912917;29;20217;-85
2022/01/10 10:34:19;;;;;;;85.17;41.07;;;0.10;1.00;;;;;;4897278;29;20198;-85
2022/01/10 10:36:59;;;;;;;80.93;39.43;;;0.10;99.90;;;;;;4897508;29;20234;-84
2022/01/10 10:39:28;;;;;;;70.73;36.17;;;0.00;99.90;;;;;;4909957;29;20201;-85
2022/01/10 10:41:56;;;;;;;84.20;40.93;;;0.00;99.90;;;;;;4913905;29;20208;-84
2022/01/10 10:44:24;;;;;;;82.43;40.90;;;0.10;99.90;;;;;;4916757;29;20277;-84
2022/01/10 10:46:52;;;;;;;79.17;36.13;;;0.10;99.90;;;;;;4916675;29;20280;-85
2022/01/10 10:49:20;;;;;;;81.77;41.07;;;0.20;99.90;;;;;;4916357;29;20221;-85
2022/01/10 10:51:51;;;;;;;83.07;39.33;;;0.30;1.00;;;;;;4916619;29;20673;-84
2022/01/10 10:54:19;;;;;;;80.27;38.23;;;0.40;1.00;;;;;;4916838;29;20299;-84
2022/01/10 10:56:48;;;;;;;79.67;38.37;;;0.50;99.90;;;;;;4915752;29;20293;-84
2022/01/10 10:59:15;;;;;;;79.10;39.00;;;0.60;99.90;;;;;;4916366;29;20610;-85
2022/01/10 11:01:43;;;;;;;76.83;37.13;;;0.80;99.90;;;;;;4916394;29;20751;-85
2022/01/10 11:04:12;;;;;;;76.33;36.93;;;0.90;99.90;;;;;;4916382;29;20212;-85
2022/01/10 11:06:40;;;;;;;82.67;39.47;;;0.90;99.90;;;;;;4915597;29;20272;-85
2022/01/10 11:09:12;;;;;;;79.17;38.80;;;1.00;99.90;;;;;;4914920;29;20198;-83
2022/01/10 11:11:43;;;;;;;73.50;37.67;;;1.10;1.00;;;;;;4915648;29;20574;-84
2022/01/10 11:14:14;;;;;;;69.57;36.00;;;1.10;1.00;;;;;;4914891;29;20209;-84
2022/01/10 11:16:43;;;;;;;71.70;35.87;;;1.10;1.00;;;;;;4914863;29;20213;-84
2022/01/10 11:19:14;;;;;;;67.37;33.70;;;1.20;1.00;;;;;;4914358;29;20288;-84
2022/01/10 11:21:45;;;;;;;68.63;36.27;;;1.20;1.00;;;;;;4915647;29;20265;-86
2022/01/10 11:24:13;;;;;;;69.20;34.60;;;1.30;1.00;;;;;;4916039;29;20202;-85
2022/01/10 11:26:43;;;;;;;73.70;34.90;;;1.40;1.00;;;;;;4916252;29;20221;-85
2022/01/10 11:29:12;;;;;;;70.23;33.90;;;1.50;1.00;;;;;;4916217;29;20213;-86
2022/01/10 11:31:42;;;;;;;69.47;33.87;;;1.60;1.00;;;;;;4904275;29;20230;-85
2022/01/10 11:34:11;;;;;;;67.37;34.73;;;1.70;1.00;;;;;;4907100;29;20304;-86
2022/01/10 11:36:47;;;;;;;69.00;34.83;;;1.80;1.00;;;;;;4918431;29;20229;-84
2022/01/10 11:39:14;;;;;;;68.30;34.20;;;1.80;99.90;;;;;;4917904;29;20287;-85
2022/01/10 11:41:41;;;;;;;69.00;33.83;;;1.90;1.00;;;;;;4911960;29;20198;-86
2022/01/10 11:44:11;;;;;;;71.43;34.63;;;2.00;1.00;;;;;;4916516;29;20193;-85
2022/01/10 11:46:41;;;;;;;71.20;33.40;;;2.00;99.90;;;;;;4912940;29;20253;-83
2022/01/10 11:49:19;;;;;;;59.33;31.10;;;2.10;99.90;;;;;;4914550;29;20209;-86
2022/01/10 11:51:59;;;;;;;67.67;32.87;;;2.10;8.70;;;;;;4913697;29;20209;-84
2022/01/10 11:54:29;;;;;;;61.53;31.13;;;2.20;99.90;;;;;;4921463;29;20298;-86
2022/01/10 11:56:58;;;;;;;60.80;31.00;;;2.20;1.00;;;;;;4921562;29;20264;-83
2022/01/10 11:59:27;;;;;;;60.67;31.60;;;2.10;1.00;;;;;;4921506;29;20262;-84
2022/01/10 12:02:03;;;;;;;75.00;37.07;;;2.10;1.00;;;;;;4921528;29;20595;-85
2022/01/10 12:04:34;;;;;;;69.43;36.20;;;2.10;1.00;;;;;;4920635;29;20248;-86
2022/01/10 12:07:03;;;;;;;68.13;37.90;;;2.10;1.00;;;;;;4920245;29;20635;-86
2022/01/10 12:09:30;;;;;;;69.27;37.13;;;2.10;99.90;;;;;;4920946;29;20599;-83
2022/01/10 12:11:59;;;;;;;71.50;39.00;;;2.00;17.10;;;;;;4920450;29;20261;-85
2022/01/10 12:14:26;;;;;;;72.80;38.67;;;2.00;1.00;;;;;;4920756;29;20198;-85
2022/01/10 12:16:55;;;;;;;65.63;34.90;;;1.90;1.00;;;;;;4903892;29;20201;-84
2022/01/10 12:19:24;;;;;;;72.73;38.13;;;1.90;1.00;;;;;;4901223;29;20254;-81
2022/01/10 12:21:52;;;;;;;67.47;36.70;;;1.80;1.00;;;;;;4913836;29;20270;-87
2022/01/10 12:24:19;;;;;;;70.80;36.20;;;1.80;99.90;;;;;;4920552;29;20260;-89
2022/01/10 12:26:46;;;;;;;72.67;39.17;;;1.70;1.00;;;;;;4919684;29;20221;-84
2022/01/10 12:29:15;;;;;;;69.87;37.27;;;1.60;55.80;;;;;;4920203;29;20213;-83
2022/01/10 12:31:44;;;;;;;68.60;37.07;;;1.60;1.00;;;;;;4920577;29;20260;-85
2022/01/10 12:34:12;;;;;;;69.43;39.40;;;1.50;99.90;;;;;;4920872;29;20612;-84
2022/01/10 12:36:42;;;;;;;56.17;30.07;;;1.50;99.90;;;;;;4920625;29;20759;-83
2022/01/10 12:39:16;;;;;;;53.20;29.80;;;1.40;99.90;;;;;;4920502;29;20301;-84
2022/01/10 12:41:43;;;;;;;64.50;33.97;;;1.30;99.90;;;;;;4920742;29;20557;-85